createdAt,value
2022-10-14T02:03:01.267Z,0.1
2022-10-14T02:05:01.590Z,0.2
2022-10-14T02:15:02.317Z,0.2
2022-10-14T02:18:01.421Z,0.1
2022-10-14T02:26:01.468Z,0.2
2022-10-14T02:27:01.108Z,0.3
2022-10-14T02:36:01.866Z,0.2
2022-10-14T02:37:01.113Z,0.1
2022-10-14T02:51:01.137Z,0.2
2022-10-14T02:52:01.121Z,0.3
2022-10-14T02:57:01.305Z,0.4
2022-10-14T03:01:01.103Z,0.5
2022-10-14T03:06:01.104Z,0.7
2022-10-14T03:10:01.349Z,0.8
2022-10-14T03:11:01.103Z,0.7
2022-10-14T03:14:01.109Z,0.8
2022-10-14T03:21:01.354Z,0.8
2022-10-14T03:22:01.102Z,0.7
2022-10-14T03:24:01.100Z,0.6
2022-10-14T03:25:02.270Z,0.5
2022-10-14T03:26:01.127Z,0.6
2022-10-14T03:27:01.099Z,0.7
2022-10-14T03:31:01.349Z,0.6
2022-10-14T03:32:01.138Z,0.5
2022-10-14T03:34:06.291Z,0.4
2022-10-14T03:57:01.439Z,0.1
2022-10-14T04:11:02.045Z,0.2
2022-10-14T04:12:01.104Z,0.3
2022-10-14T04:16:01.331Z,0.4
2022-10-14T04:17:01.104Z,0.5
2022-10-14T04:19:01.162Z,0.6
2022-10-14T04:20:01.127Z,0.7
2022-10-14T04:24:04.888Z,0.6
2022-10-14T04:25:01.124Z,0.5
2022-10-14T04:27:01.139Z,0.4
2022-10-14T04:28:01.176Z,0.3
2022-10-14T04:32:01.178Z,0.2
2022-10-14T04:33:01.113Z,0.1
2022-10-14T04:41:01.475Z,0.2
2022-10-14T04:42:01.122Z,0.3
2022-10-14T04:44:01.147Z,0.4
2022-10-14T04:47:01.586Z,0.6
2022-10-14T04:48:01.116Z,0.7
2022-10-14T04:50:01.198Z,0.8
2022-10-14T04:52:01.465Z,0.9
2022-10-14T04:54:01.758Z,1.0
2022-10-14T04:59:01.305Z,1.1
2022-10-14T05:00:01.128Z,1.1
2022-10-14T05:01:01.112Z,1.2
2022-10-14T05:02:01.180Z,1.3
2022-10-14T05:04:01.314Z,1.5
2022-10-14T05:05:01.103Z,1.6
2022-10-14T05:06:01.117Z,1.8
2022-10-14T05:07:01.104Z,2.0
2022-10-14T05:08:01.114Z,2.2
2022-10-14T05:09:01.330Z,2.5
2022-10-14T05:10:01.115Z,2.9
2022-10-14T05:11:01.543Z,3.3
2022-10-14T05:12:01.107Z,3.8
2022-10-14T05:13:01.114Z,4.3
2022-10-14T05:14:01.325Z,4.9
2022-10-14T05:15:01.361Z,5.6
2022-10-14T05:16:06.827Z,6.7
2022-10-14T05:17:01.208Z,7.9
2022-10-14T05:18:01.171Z,9.0
2022-10-14T05:19:01.510Z,10.7
2022-10-14T05:20:01.112Z,12.5
2022-10-14T05:21:01.121Z,15.2
2022-10-14T05:22:01.110Z,17.9
2022-10-14T05:23:01.108Z,20.7
2022-10-14T05:24:01.601Z,24.9
2022-10-14T05:25:01.114Z,29.2
2022-10-14T05:26:01.390Z,35.9
2022-10-14T05:27:01.117Z,42.5
2022-10-14T05:28:01.110Z,49.2
2022-10-14T05:29:01.367Z,59.1
2022-10-14T05:30:01.125Z,68.9
2022-10-14T05:31:06.720Z,83.7
2022-10-14T05:32:01.143Z,98.4
2022-10-14T05:33:01.113Z,113.1
2022-10-14T05:34:01.612Z,132.5
2022-10-14T05:35:01.124Z,151.8
2022-10-14T05:36:01.126Z,179.4
2022-10-14T05:37:01.116Z,207.0
2022-10-14T05:38:04.173Z,234.6
2022-10-14T05:39:01.340Z,274.6
2022-10-14T05:40:01.114Z,314.6
2022-10-14T05:41:01.756Z,363.9
2022-10-14T05:42:01.136Z,413.1
2022-10-14T05:43:01.115Z,462.4
2022-10-14T05:44:01.318Z,521.8
2022-10-14T05:45:01.123Z,581.2
2022-10-14T05:46:01.125Z,660.3
2022-10-14T05:47:04.200Z,739.3
2022-10-14T05:48:01.115Z,818.4
2022-10-14T05:49:01.334Z,904.8
2022-10-14T05:51:01.175Z,1000.9
2022-10-14T05:52:01.107Z,1087.6
2022-10-14T05:53:03.317Z,1174.3
2022-10-14T05:54:01.106Z,1290.3
2022-10-14T05:55:01.307Z,1392.1
2022-10-14T05:56:01.861Z,1527.7
2022-10-14T05:57:01.114Z,1651.4
2022-10-14T05:58:01.108Z,1775.1
2022-10-14T05:59:01.107Z,1933.3
2022-10-14T06:00:02.597Z,2077.8
2022-10-14T06:01:01.132Z,2284.2
2022-10-14T06:02:01.381Z,2465.6
2022-10-14T06:03:01.189Z,2647.0
2022-10-14T06:04:01.106Z,2873.7
2022-10-14T06:05:01.313Z,3087.7
2022-10-14T06:06:01.113Z,3356.4
2022-10-14T06:07:01.107Z,3625.1
2022-10-14T06:08:01.148Z,3893.7
2022-10-14T06:09:01.107Z,4182.9
2022-10-14T06:10:01.315Z,4472.1
2022-10-14T06:11:01.734Z,4758.8
2022-10-14T06:12:01.111Z,5045.5
2022-10-14T06:13:01.104Z,5332.1
2022-10-14T06:14:01.392Z,5630.6
2022-10-14T06:15:01.586Z,5929.1
2022-10-14T06:16:01.931Z,6199.4
2022-10-14T06:17:01.104Z,6469.7
2022-10-14T06:18:01.120Z,6740.1
2022-10-14T06:19:01.139Z,7099.5
2022-10-14T06:20:01.310Z,7458.9
2022-10-14T06:21:01.380Z,7760.8
2022-10-14T06:22:01.115Z,8062.7
2022-10-14T06:23:01.170Z,8364.7
2022-10-14T06:24:01.381Z,8693.7
2022-10-14T06:25:04.179Z,9022.8
2022-10-14T06:26:01.121Z,9407.5
2022-10-14T06:27:01.236Z,9792.3
2022-10-14T06:28:01.114Z,10177.0
2022-10-14T06:29:01.235Z,10590.2
2022-10-14T06:30:01.456Z,11003.4
2022-10-14T06:31:01.745Z,11438.3
2022-10-14T06:32:01.113Z,11873.1
2022-10-14T06:33:01.120Z,12308.0
2022-10-14T06:34:01.121Z,12616.9
2022-10-14T06:35:01.444Z,12925.7
2022-10-14T06:36:01.543Z,13342.3
2022-10-14T06:37:02.338Z,13758.8
2022-10-14T06:38:01.112Z,14175.3
2022-10-14T06:39:01.180Z,14603.0
2022-10-14T06:40:01.454Z,15030.7
2022-10-14T06:41:01.131Z,15440.8
2022-10-14T06:42:01.113Z,15850.9
2022-10-14T06:43:01.113Z,16261.1
2022-10-14T06:44:01.118Z,16550.5
2022-10-14T06:45:01.509Z,16839.9
2022-10-14T06:46:01.252Z,17077.9
2022-10-14T06:47:01.175Z,17316.0
2022-10-14T06:48:01.116Z,17554.1
2022-10-14T06:49:01.390Z,17827.7
2022-10-14T06:50:01.318Z,18101.3
2022-10-14T06:51:01.760Z,18341.0
2022-10-14T06:52:01.115Z,18580.7
2022-10-14T06:53:01.115Z,18820.5
2022-10-14T06:54:01.175Z,19091.3
2022-10-14T06:56:01.318Z,19487.9
2022-10-14T06:57:01.372Z,19815.2
2022-10-14T06:58:01.169Z,20142.5
2022-10-14T06:59:01.103Z,20583.6
2022-10-14T07:00:01.119Z,21070.7
2022-10-14T07:01:02.080Z,21498.6
2022-10-14T07:02:01.160Z,21922.4
2022-10-14T07:03:01.398Z,22346.2
2022-10-14T07:04:02.135Z,22728.0
2022-10-14T07:05:01.169Z,23065.9
2022-10-14T07:06:01.333Z,23398.9
2022-10-14T07:07:01.126Z,23651.2
2022-10-14T07:09:01.160Z,24126.5
2022-10-14T07:10:01.188Z,24230.5
2022-10-14T07:11:01.971Z,24272.1
2022-10-14T07:12:01.106Z,24313.8
2022-10-14T07:13:02.145Z,24355.5
2022-10-14T07:14:01.108Z,24353.4
2022-10-14T07:15:01.118Z,24351.3
2022-10-14T07:16:01.318Z,24397.8
2022-10-14T07:17:01.112Z,24444.3
2022-10-14T07:18:01.104Z,24490.7
2022-10-14T07:19:01.135Z,24476.3
2022-10-14T07:20:01.104Z,24461.8
2022-10-14T07:21:01.320Z,24502.4
2022-10-14T07:22:01.105Z,24543.0
2022-10-14T07:23:01.236Z,24583.6
2022-10-14T07:24:01.110Z,24797.7
2022-10-14T07:25:06.076Z,25011.7
2022-10-14T07:26:02.138Z,25223.2
2022-10-14T07:27:01.113Z,25434.7
2022-10-14T07:28:01.311Z,25646.1
2022-10-14T07:29:01.212Z,25541.7
2022-10-14T07:30:01.113Z,25437.3
2022-10-14T07:31:01.614Z,25102.9
2022-10-14T07:32:01.172Z,24768.5
2022-10-14T07:33:01.115Z,24434.1
2022-10-14T07:34:01.121Z,24314.9
2022-10-14T07:35:01.115Z,24195.7
2022-10-14T07:36:01.617Z,23940.8
2022-10-14T07:37:01.110Z,23685.9
2022-10-14T07:38:01.112Z,23430.9
2022-10-14T07:39:01.144Z,23115.7
2022-10-14T07:40:01.380Z,22800.4
2022-10-14T07:41:01.951Z,22777.4
2022-10-14T07:42:01.115Z,22754.4
2022-10-14T07:43:01.111Z,22731.4
2022-10-14T07:44:01.116Z,22847.5
2022-10-14T07:45:01.121Z,22963.5
2022-10-14T07:46:01.336Z,23696.5
2022-10-14T07:47:01.108Z,24429.4
2022-10-14T07:48:01.118Z,25162.3
2022-10-14T07:49:01.115Z,27006.5
2022-10-14T07:50:01.111Z,28850.7
2022-10-14T07:51:01.329Z,30406.7
2022-10-14T07:52:01.137Z,31962.6
2022-10-14T07:53:01.630Z,33518.5
2022-10-14T07:54:01.115Z,35325.5
2022-10-14T07:55:01.271Z,37132.5
2022-10-14T07:56:01.815Z,38065.9
2022-10-14T07:57:01.363Z,38999.2
2022-10-14T07:58:01.116Z,39932.5
2022-10-14T07:59:01.115Z,40692.1
2022-10-14T08:00:01.115Z,41451.6
2022-10-14T08:02:16.116Z,42767.9
2022-10-14T08:03:01.251Z,44084.1
2022-10-14T08:04:01.116Z,45457.3
2022-10-14T08:05:19.321Z,45606.9
2022-10-14T08:06:01.107Z,45357.9
2022-10-14T08:07:01.110Z,45482.9
2022-10-14T08:08:02.335Z,45607.9
2022-10-14T08:09:01.105Z,45649.5
2022-10-14T08:10:01.134Z,45356.3
2022-10-14T08:11:01.873Z,45667.9
2022-10-14T08:12:01.107Z,46499.9
2022-10-14T08:13:11.323Z,47332.0
2022-10-14T08:14:01.363Z,47586.2
2022-10-14T08:15:01.138Z,48121.0
2022-10-14T08:16:01.608Z,48534.5
2022-10-14T08:17:01.111Z,48015.1
2022-10-14T08:18:01.311Z,47495.7
2022-10-14T08:19:01.379Z,46468.5
2022-10-14T08:20:01.135Z,45441.3
2022-10-14T08:21:01.112Z,44675.0
2022-10-14T08:22:01.104Z,43908.7
2022-10-14T08:23:01.592Z,43142.5
2022-10-14T08:24:01.106Z,43032.0
2022-10-14T08:25:01.106Z,42921.5
2022-10-14T08:26:01.183Z,43034.7
2022-10-14T08:27:01.127Z,43147.8
2022-10-14T08:28:01.579Z,43260.9
2022-10-14T08:29:01.104Z,43299.1
2022-10-14T08:30:01.106Z,43337.2
2022-10-14T08:31:02.551Z,43748.6
2022-10-14T08:32:01.108Z,44160.0
2022-10-14T08:33:01.343Z,44571.4
2022-10-14T08:34:01.111Z,45821.0
2022-10-14T08:35:06.200Z,47070.6
2022-10-14T08:36:01.121Z,48682.9
2022-10-14T08:37:01.391Z,50295.1
2022-10-14T08:38:01.334Z,51907.4
2022-10-14T08:39:01.215Z,53407.1
2022-10-14T08:40:01.118Z,54906.9
2022-10-14T08:41:01.926Z,55578.1
2022-10-14T08:42:01.117Z,56249.4
2022-10-14T08:43:01.477Z,56920.7
2022-10-14T08:44:01.112Z,58244.8
2022-10-14T08:45:01.112Z,59568.9
2022-10-14T08:46:01.674Z,60050.3
2022-10-14T08:47:01.114Z,60531.7
2022-10-14T08:48:01.427Z,61013.1
2022-10-14T08:49:01.125Z,61698.1
2022-10-14T08:50:01.122Z,62383.0
2022-10-14T08:51:01.744Z,60993.5
2022-10-14T08:52:01.118Z,59604.1
2022-10-14T08:53:01.423Z,58214.6
2022-10-14T08:54:01.382Z,57934.8
2022-10-14T08:55:01.123Z,57655.0
2022-10-14T09:00:02.327Z,57655.0
2022-10-14T09:01:01.123Z,57739.4
2022-10-14T09:02:01.323Z,57823.8
2022-10-14T09:03:01.217Z,57908.2
2022-10-14T09:06:03.114Z,59757.5
2022-10-14T09:08:02.293Z,61606.9
2022-10-14T09:09:01.104Z,63456.2
2022-10-14T09:10:01.111Z,63736.0
2022-10-14T09:11:01.103Z,64015.8
2022-10-14T09:15:01.390Z,64015.8
2022-10-14T09:17:02.242Z,64522.2
2022-10-14T09:18:01.148Z,65028.6
2022-10-14T09:19:01.118Z,65535.0
2022-10-14T09:30:01.113Z,65535.0
2022-10-14T09:45:01.188Z,65535.0
2022-10-14T10:00:01.119Z,65535.0
2022-10-14T10:15:01.143Z,65535.0
2022-10-14T10:30:01.139Z,65535.0
2022-10-14T10:45:01.129Z,65535.0
2022-10-14T11:00:01.158Z,65535.0
2022-10-14T11:15:01.131Z,65535.0
2022-10-14T11:30:01.113Z,65535.0
2022-10-14T11:45:01.132Z,65535.0
2022-10-14T12:00:01.117Z,65535.0
2022-10-14T12:15:01.200Z,65535.0
2022-10-14T12:30:01.137Z,65535.0
2022-10-14T12:45:01.136Z,65535.0
2022-10-14T13:00:01.108Z,65535.0
2022-10-14T13:15:01.683Z,65535.0
2022-10-14T13:30:01.528Z,65535.0
2022-10-14T13:45:05.970Z,65535.0
2022-10-14T14:15:02.447Z,65535.0
2022-10-14T14:41:00.604Z,65069.4
2022-10-14T14:42:00.610Z,64603.8
2022-10-14T14:43:00.642Z,64138.2
2022-10-14T14:44:24.397Z,64110.7
2022-10-14T14:49:00.648Z,64045.5
2022-10-14T14:50:25.249Z,64007.8
2022-10-14T14:51:00.609Z,63196.1
2022-10-14T14:52:00.622Z,62384.3
2022-10-14T14:53:00.627Z,61572.6
2022-10-14T14:54:00.652Z,60453.9
2022-10-14T14:56:00.622Z,58379.5
2022-10-14T14:57:00.620Z,57423.8
2022-10-14T14:58:00.623Z,56468.1
2022-10-14T14:59:00.634Z,54994.3
2022-10-14T15:01:00.625Z,52065.9
2022-10-14T15:03:00.613Z,49156.6
2022-10-14T15:04:11.573Z,47995.9
2022-10-14T15:06:00.642Z,46699.1
2022-10-14T15:07:00.609Z,46563.1
2022-10-14T15:08:00.610Z,46427.1
2022-10-14T15:09:00.641Z,46610.5
2022-10-14T15:10:00.822Z,46793.8
2022-10-14T15:11:00.714Z,47279.8
2022-10-14T15:12:00.613Z,47654.4
2022-10-14T15:13:02.418Z,48029.0
2022-10-14T15:14:00.908Z,48351.6
2022-10-14T15:15:01.504Z,48674.2
2022-10-14T15:16:00.611Z,48950.3
2022-10-14T15:17:00.612Z,49002.4
2022-10-14T15:18:00.610Z,49054.5
2022-10-14T15:19:00.949Z,48708.1
2022-10-14T15:20:00.958Z,48361.7
2022-10-14T15:21:00.643Z,47764.6
2022-10-14T15:22:00.610Z,47115.5
2022-10-14T15:23:00.611Z,46466.3
2022-10-14T15:24:00.668Z,45176.1
2022-10-14T15:25:01.788Z,43885.9
2022-10-14T15:26:00.977Z,42595.7
2022-10-14T15:27:00.619Z,41404.2
2022-10-14T15:28:00.678Z,40212.7
2022-10-14T15:29:00.700Z,38900.7
2022-10-14T15:30:01.584Z,37588.7
2022-10-14T15:31:02.941Z,36276.7
2022-10-14T15:32:00.695Z,35012.9
2022-10-14T15:33:00.609Z,33749.1
2022-10-14T15:34:00.656Z,32516.7
2022-10-14T15:35:06.505Z,31284.3
2022-10-14T15:36:00.696Z,30051.9
2022-10-14T15:37:00.649Z,28801.7
2022-10-14T15:38:00.617Z,27551.6
2022-10-14T15:39:00.667Z,26858.9
2022-10-14T15:40:01.089Z,26166.1
2022-10-14T15:41:05.619Z,25473.4
2022-10-14T15:42:00.626Z,24703.9
2022-10-14T15:43:00.680Z,23934.5
2022-10-14T15:44:00.641Z,23290.3
2022-10-14T15:46:00.680Z,22002.1
2022-10-14T15:47:00.735Z,21405.7
2022-10-14T15:48:01.663Z,20809.4
2022-10-14T15:49:00.847Z,20258.4
2022-10-14T15:51:00.619Z,19156.4
2022-10-14T15:52:00.623Z,18650.8
2022-10-14T15:53:00.646Z,18145.2
2022-10-14T15:54:00.640Z,17625.9
2022-10-14T15:56:00.621Z,16587.2
2022-10-14T15:57:00.619Z,16041.3
2022-10-14T15:58:00.693Z,15495.5
2022-10-14T15:59:00.651Z,14968.9
2022-10-14T16:00:03.198Z,14442.3
2022-10-14T16:01:00.634Z,13915.7
2022-10-14T16:02:01.742Z,13455.3
2022-10-14T16:03:00.618Z,12995.0
2022-10-14T16:04:00.660Z,12566.9
2022-10-14T16:05:19.590Z,12138.9
2022-10-14T16:07:00.625Z,11237.1
2022-10-14T16:08:00.625Z,10763.5
2022-10-14T16:09:00.826Z,10310.3
2022-10-14T16:10:00.843Z,9857.1
2022-10-14T16:11:00.628Z,9403.9
2022-10-14T16:12:00.623Z,9003.7
2022-10-14T16:13:00.623Z,8603.6
2022-10-14T16:14:00.646Z,8258.1
2022-10-14T16:16:00.619Z,7567.2
2022-10-14T16:17:03.708Z,7216.8
2022-10-14T16:18:00.628Z,6866.4
2022-10-14T16:19:00.658Z,6494.8
2022-10-14T16:20:00.970Z,6123.2
2022-10-14T16:21:00.628Z,5751.6
2022-10-14T16:22:00.623Z,5406.5
2022-10-14T16:23:00.626Z,5061.3
2022-10-14T16:24:00.719Z,4748.1
2022-10-14T16:26:00.626Z,4121.7
2022-10-14T16:27:00.627Z,3842.3
2022-10-14T16:28:00.644Z,3562.9
2022-10-14T16:29:00.668Z,3315.1
2022-10-14T16:31:00.634Z,2819.5
2022-10-14T16:32:00.627Z,2607.7
2022-10-14T16:33:00.789Z,2395.9
2022-10-14T16:34:01.693Z,2216.1
2022-10-14T16:35:00.888Z,2036.2
2022-10-14T16:36:00.700Z,1856.3
2022-10-14T16:37:00.631Z,1703.1
2022-10-14T16:38:00.630Z,1549.8
2022-10-14T16:39:00.659Z,1417.7
2022-10-14T16:40:00.921Z,1285.7
2022-10-14T16:41:00.656Z,1153.6
2022-10-14T16:42:00.700Z,1042.9
2022-10-14T16:43:00.636Z,932.1
2022-10-14T16:44:00.894Z,837.0
2022-10-14T16:46:00.651Z,646.7
2022-10-14T16:47:00.642Z,577.3
2022-10-14T16:48:00.642Z,507.9
2022-10-14T16:49:00.685Z,456.9
2022-10-14T16:50:00.906Z,405.9
2022-10-14T16:51:01.084Z,354.9
2022-10-14T16:52:00.642Z,317.6
2022-10-14T16:53:02.157Z,280.3
2022-10-14T16:54:00.818Z,252.0
2022-10-14T16:55:00.873Z,223.7
2022-10-14T16:56:00.649Z,195.5
2022-10-14T16:57:00.835Z,173.4
2022-10-14T16:58:00.640Z,151.3
2022-10-14T16:59:00.779Z,134.1
2022-10-14T17:01:00.689Z,99.7
2022-10-14T17:02:01.680Z,86.7
2022-10-14T17:03:00.645Z,73.7
2022-10-14T17:04:00.655Z,64.5
2022-10-14T17:05:00.867Z,55.2
2022-10-14T17:06:00.649Z,45.9
2022-10-14T17:07:00.643Z,39.5
2022-10-14T17:08:05.945Z,33.0
2022-10-14T17:09:00.660Z,28.7
2022-10-14T17:10:00.857Z,24.3
2022-10-14T17:11:00.954Z,20.0
2022-10-14T17:12:00.642Z,17.1
2022-10-14T17:13:00.670Z,14.3
2022-10-14T17:14:00.691Z,12.3
2022-10-14T17:15:01.558Z,10.4
2022-10-14T17:16:00.648Z,8.5
2022-10-14T17:17:00.652Z,7.2
2022-10-14T17:18:00.643Z,5.9
2022-10-14T17:19:00.666Z,5.1
2022-10-14T17:20:01.286Z,4.2
2022-10-14T17:21:00.655Z,3.3
2022-10-14T17:22:00.664Z,2.9
2022-10-14T17:23:00.656Z,2.4
2022-10-14T17:24:00.675Z,2.1
2022-10-14T17:25:10.742Z,1.9
2022-10-14T17:26:00.650Z,1.6
2022-10-14T17:27:00.650Z,1.4
2022-10-14T17:29:00.799Z,1.1
2022-10-14T17:31:00.653Z,0.8
2022-10-14T17:32:00.663Z,0.7
2022-10-14T17:33:00.652Z,0.5
2022-10-14T17:36:00.657Z,0.3
2022-10-14T17:38:00.800Z,0.2
2022-10-14T17:39:00.685Z,0.1
